createdAt,value
2024-05-09T00:02:01.104Z,101544.78
2024-05-09T00:07:05.614Z,101542.97
2024-05-09T00:12:12.715Z,101544.59
2024-05-09T00:17:19.532Z,101547.56
2024-05-09T00:22:23.950Z,101540.09
2024-05-09T00:27:30.855Z,101537.16
2024-05-09T00:32:38.400Z,101547.16
2024-05-09T00:37:42.923Z,101542.00
2024-05-09T00:42:49.884Z,101540.91
2024-05-09T00:47:54.648Z,101537.25
2024-05-09T00:52:59.535Z,101542.31
2024-05-09T00:58:09.667Z,101543.09
2024-05-09T01:03:14.615Z,101546.16
2024-05-09T01:08:19.364Z,101539.81
2024-05-09T01:13:26.484Z,101536.16
2024-05-09T01:18:32.920Z,101538.06
2024-05-09T01:23:40.059Z,101542.94
2024-05-09T01:28:44.449Z,101553.25
2024-05-09T01:33:48.927Z,101554.06
2024-05-09T01:38:55.998Z,101546.66
2024-05-09T01:44:01.009Z,101547.06
2024-05-09T01:49:05.510Z,101552.00
2024-05-09T01:54:12.704Z,101551.78
2024-05-09T01:59:17.965Z,101552.53
2024-05-09T02:04:22.612Z,101551.88
2024-05-09T02:09:29.890Z,101552.41
2024-05-09T02:14:34.305Z,101544.47
2024-05-09T02:19:38.571Z,101541.41
2024-05-09T02:24:45.486Z,101544.53
2024-05-09T02:29:49.934Z,101543.44
2024-05-09T02:34:54.384Z,101548.34
2024-05-09T02:40:01.316Z,101541.50
2024-05-09T02:45:05.981Z,101545.63
2024-05-09T02:50:13.450Z,101539.22
2024-05-09T02:55:23.127Z,101538.28
2024-05-09T03:00:36.626Z,101544.53
2024-05-09T03:05:44.956Z,101546.78
2024-05-09T03:10:52.514Z,101551.31
2024-05-09T03:15:56.946Z,101543.22
2024-05-09T03:21:01.522Z,101544.19
2024-05-09T03:26:15.272Z,101531.41
2024-05-09T03:31:24.052Z,101534.53
2024-05-09T03:36:28.526Z,101531.00
2024-05-09T03:41:35.635Z,101542.53
2024-05-09T03:46:43.133Z,101542.22
2024-05-09T03:51:47.535Z,101545.22
2024-05-09T03:56:54.653Z,101547.16
2024-05-09T04:01:59.139Z,101541.16
2024-05-09T04:07:03.747Z,101539.09
2024-05-09T04:12:12.525Z,101531.53
2024-05-09T04:17:17.088Z,101538.88
2024-05-09T04:22:21.403Z,101544.47
2024-05-09T04:27:28.457Z,101540.84
2024-05-09T04:32:33.004Z,101542.91
2024-05-09T04:37:37.624Z,101553.09
2024-05-09T04:42:45.599Z,101541.22
2024-05-09T04:47:50.493Z,101543.38
2024-05-09T04:52:56.618Z,101549.59
2024-05-09T04:58:03.765Z,101551.31
2024-05-09T05:03:13.192Z,101551.22
2024-05-09T05:08:20.607Z,101558.56
2024-05-09T05:13:27.620Z,101549.38
2024-05-09T05:18:32.357Z,101558.03
2024-05-09T05:23:37.159Z,101559.34
2024-05-09T05:28:44.349Z,101553.13
2024-05-09T05:33:51.072Z,101560.66
2024-05-09T05:38:55.803Z,101561.22
2024-05-09T05:44:03.095Z,101567.03
2024-05-09T05:49:07.742Z,101567.88
2024-05-09T05:54:12.386Z,101576.91
2024-05-09T05:59:19.518Z,101586.13
2024-05-09T06:04:23.937Z,101587.75
2024-05-09T06:09:28.130Z,101591.06
2024-05-09T06:14:35.085Z,101584.97
2024-05-09T06:19:39.585Z,101579.53
2024-05-09T06:24:44.115Z,101586.69
2024-05-09T06:29:50.933Z,101594.94
2024-05-09T06:34:55.338Z,101591.91
2024-05-09T06:39:59.779Z,101580.84
2024-05-09T06:45:07.189Z,101576.28
2024-05-09T06:50:20.187Z,101577.09
2024-05-09T06:55:28.448Z,101579.84
2024-05-09T07:00:39.512Z,101581.47
2024-05-09T07:05:46.802Z,101584.78
2024-05-09T07:10:52.590Z,101581.22
2024-05-09T07:15:59.743Z,101576.81
2024-05-09T07:21:04.164Z,101577.38
2024-05-09T07:26:08.584Z,101581.19
2024-05-09T07:31:15.997Z,101579.00
2024-05-09T07:36:20.371Z,101570.78
2024-05-09T07:41:24.700Z,101564.13
2024-05-09T07:47:37.157Z,101561.16
2024-05-09T07:53:21.832Z,101557.59
2024-05-09T07:57:20.882Z,101557.34
2024-05-09T08:02:28.061Z,101559.59
2024-05-09T08:07:35.175Z,101550.28
2024-05-09T08:12:39.666Z,101547.78
2024-05-09T08:17:46.620Z,101544.16
2024-05-09T08:22:50.987Z,101549.38
2024-05-09T08:27:55.463Z,101545.94
2024-05-09T08:33:02.991Z,101538.16
2024-05-09T08:38:09.364Z,101541.47
2024-05-09T08:43:14.481Z,101537.81
2024-05-09T08:48:24.270Z,101536.38
2024-05-09T08:53:29.170Z,101528.50
2024-05-09T08:58:35.050Z,101529.53
2024-05-09T09:03:43.147Z,101529.03
2024-05-09T09:08:48.239Z,101528.88
2024-05-09T09:13:52.782Z,101533.25
2024-05-09T09:19:00.275Z,101522.81
2024-05-09T09:24:06.055Z,101527.88
2024-05-09T09:29:11.824Z,101529.44
2024-05-09T09:34:18.988Z,101532.16
2024-05-09T09:39:25.456Z,101531.91
2024-05-09T09:44:30.194Z,101523.03
2024-05-09T09:49:40.160Z,101515.34
2024-05-09T09:54:47.563Z,101516.50
2024-05-09T09:59:53.732Z,101505.66
2024-05-09T10:05:03.322Z,101513.50
2024-05-09T10:10:11.031Z,101504.41
2024-05-09T10:15:15.537Z,101496.34
2024-05-09T10:20:28.129Z,101499.53
2024-05-09T10:25:37.260Z,101490.84
2024-05-09T10:30:45.273Z,101493.66
2024-05-09T10:35:56.509Z,101494.63
2024-05-09T10:41:02.679Z,101491.97
2024-05-09T10:46:08.004Z,101492.44
2024-05-09T10:51:16.288Z,101491.94
2024-05-09T10:56:20.597Z,101485.19
2024-05-09T11:01:25.658Z,101477.09
2024-05-09T11:06:35.177Z,101477.47
2024-05-09T11:11:39.851Z,101472.50
2024-05-09T11:16:45.144Z,101454.88
2024-05-09T11:21:56.296Z,101455.88
2024-05-09T11:27:08.084Z,101457.78
2024-05-09T11:32:16.493Z,101445.19
2024-05-09T11:37:23.792Z,101446.28
2024-05-09T11:42:28.384Z,101455.94
2024-05-09T11:47:33.270Z,101436.13
2024-05-09T11:52:40.964Z,101432.56
2024-05-09T11:57:45.504Z,101436.44
2024-05-09T12:02:52.763Z,101419.94
2024-05-09T12:07:59.934Z,101424.44
2024-05-09T12:13:06.435Z,101408.84
2024-05-09T12:18:11.869Z,101400.47
2024-05-09T12:23:18.942Z,101402.59
2024-05-09T12:28:26.477Z,101395.91
2024-05-09T12:33:30.992Z,101395.03
2024-05-09T12:38:38.296Z,101383.25
2024-05-09T12:43:42.931Z,101381.75
2024-05-09T12:48:47.894Z,101379.50
2024-05-09T12:53:58.061Z,101374.19
2024-05-09T12:59:02.865Z,101364.97
2024-05-09T13:04:07.607Z,101375.03
2024-05-09T13:09:16.583Z,101358.22
2024-05-09T13:14:20.926Z,101358.06
2024-05-09T13:19:25.518Z,101347.94
2024-05-09T13:24:32.756Z,101350.41
2024-05-09T13:29:39.125Z,101341.94
2024-05-09T13:34:44.772Z,101335.03
2024-05-09T13:39:52.251Z,101338.03
2024-05-09T13:44:56.700Z,101331.63
2024-05-09T13:50:02.000Z,101336.53
2024-05-09T13:55:12.632Z,101324.28
2024-05-09T14:00:27.440Z,101310.72
2024-05-09T14:05:41.927Z,101308.19
2024-05-09T14:10:50.895Z,101304.09
2024-05-09T14:15:55.824Z,101294.97
2024-05-09T14:21:00.376Z,101293.69
2024-05-09T14:26:07.954Z,101291.09
2024-05-09T14:31:12.455Z,101287.31
2024-05-09T14:36:17.378Z,101280.19
2024-05-09T14:41:24.537Z,101276.16
2024-05-09T14:46:29.085Z,101274.81
2024-05-09T14:51:33.546Z,101263.69
2024-05-09T14:56:44.042Z,101261.75
2024-05-09T15:01:51.592Z,101252.22
2024-05-09T15:06:56.662Z,101248.81
2024-05-09T15:12:09.321Z,101239.09
2024-05-09T15:17:13.705Z,101242.38
2024-05-09T15:22:18.378Z,101242.53
2024-05-09T15:27:25.412Z,101243.09
2024-05-09T15:32:29.960Z,101229.28
2024-05-09T15:37:34.554Z,101227.53
2024-05-09T15:42:43.233Z,101225.94
2024-05-09T15:47:48.101Z,101222.31
2024-05-09T15:52:52.533Z,101224.75
2024-05-09T15:57:59.488Z,101215.13
2024-05-09T16:03:04.031Z,101206.28
2024-05-09T16:08:09.163Z,101218.50
2024-05-09T16:13:17.197Z,101216.16
2024-05-09T16:18:22.287Z,101215.66
2024-05-09T16:23:26.636Z,101211.34
2024-05-09T16:28:36.783Z,101213.72
2024-05-09T16:33:44.342Z,101205.03
2024-05-09T16:38:48.791Z,101216.16
2024-05-09T16:43:58.054Z,101212.88
2024-05-09T16:49:02.805Z,101214.78
2024-05-09T16:54:07.256Z,101206.38
2024-05-09T16:59:14.483Z,101211.88
2024-05-09T17:04:19.155Z,101211.72
2024-05-09T17:09:24.453Z,101211.09
2024-05-09T17:14:31.528Z,101205.03
2024-05-09T17:24:43.357Z,101199.59
2024-05-09T17:29:50.604Z,101198.88
2024-05-09T17:34:54.958Z,101197.44
2024-05-09T17:39:59.425Z,101194.94
2024-05-09T17:45:06.729Z,101195.00
2024-05-09T17:50:15.070Z,101201.81
2024-05-09T17:55:25.588Z,101199.97
2024-05-09T18:00:39.464Z,101203.66
2024-05-09T18:05:46.567Z,101196.09
2024-05-09T18:10:52.723Z,101197.47
2024-05-09T18:16:03.434Z,101206.72
2024-05-09T18:21:08.221Z,101203.06
2024-05-09T18:26:12.919Z,101208.69
2024-05-09T18:31:20.327Z,101210.25
2024-05-09T18:36:25.532Z,101214.91
2024-05-09T18:41:29.855Z,101208.53
2024-05-09T18:46:36.876Z,101224.81
2024-05-09T18:51:41.674Z,101212.19
2024-05-09T18:56:46.169Z,101225.19
2024-05-09T19:01:53.285Z,101233.47
2024-05-09T19:06:57.995Z,101243.50
2024-05-09T19:12:06.337Z,101243.31
2024-05-09T19:17:14.544Z,101251.00
2024-05-09T19:22:19.167Z,101253.94
2024-05-09T19:27:24.476Z,101248.41
2024-05-09T19:32:31.850Z,101251.69
2024-05-09T19:37:36.317Z,101259.44
2024-05-09T19:42:40.635Z,101255.28
2024-05-09T19:47:47.567Z,101258.34
2024-05-09T19:52:52.125Z,101258.66
2024-05-09T19:58:06.142Z,101273.44
2024-05-09T20:03:15.256Z,101276.59
2024-05-09T20:08:20.344Z,101273.41
2024-05-09T20:13:24.624Z,101277.88
2024-05-09T20:18:31.770Z,101281.41
2024-05-09T20:23:36.305Z,101273.78
2024-05-09T20:28:41.564Z,101274.81
2024-05-09T20:33:48.566Z,101268.53
2024-05-09T20:38:53.052Z,101271.25
2024-05-09T20:44:00.560Z,101267.34
2024-05-09T20:49:07.702Z,101262.22
2024-05-09T20:54:12.450Z,101268.78
2024-05-09T20:59:17.040Z,101258.13
2024-05-09T21:04:24.244Z,101269.72
2024-05-09T21:09:28.758Z,101266.19
2024-05-09T21:14:33.085Z,101270.34
2024-05-09T21:19:39.982Z,101270.44
2024-05-09T21:24:44.350Z,101272.88
2024-05-09T21:29:48.590Z,101265.44
2024-05-09T21:34:55.514Z,101268.00
2024-05-09T21:40:00.983Z,101267.66
2024-05-09T21:45:06.143Z,101264.59
2024-05-09T21:50:22.172Z,101267.94
2024-05-09T21:55:28.214Z,101270.69
2024-05-09T22:00:37.577Z,101261.69
2024-05-09T22:05:45.916Z,101260.34
2024-05-09T22:10:51.016Z,101260.97
2024-05-09T22:15:58.513Z,101264.69
2024-05-09T22:21:05.471Z,101261.47
2024-05-09T22:26:10.485Z,101262.53
2024-05-09T22:31:14.779Z,101266.88
2024-05-09T22:36:21.719Z,101264.63
2024-05-09T22:41:26.101Z,101269.50
2024-05-09T22:46:30.568Z,101266.59
2024-05-09T22:51:37.827Z,101271.50
2024-05-09T22:56:43.001Z,101274.38
2024-05-09T23:01:47.613Z,101261.09
2024-05-09T23:06:55.180Z,101270.28
2024-05-09T23:11:59.836Z,101262.75
2024-05-09T23:17:04.265Z,101269.75
2024-05-09T23:22:11.386Z,101262.22
2024-05-09T23:27:17.438Z,101246.16
2024-05-09T23:32:22.235Z,101248.31
2024-05-09T23:37:29.382Z,101251.19
2024-05-09T23:42:33.957Z,101242.94
2024-05-09T23:47:38.626Z,101239.16
2024-05-09T23:52:45.590Z,101242.44
2024-05-09T23:57:50.037Z,101236.28
